sensor_id;sensor_type;location;lat;lon;timestamp;pressure;altitude;pressure_sealevel;temperature;humidity
16461;BME280;8341;42.048;24.650;2023-05-18T00:00:00;96715.63;;;13.83;100.00
16461;BME280;8341;42.048;24.650;2023-05-18T00:02:27;96710.13;;;13.89;100.00
16461;BME280;8341;42.048;24.650;2023-05-18T00:04:54;96707.59;;;13.91;100.00
16461;BME280;8341;42.048;24.650;2023-05-18T00:07:21;96709.38;;;13.88;100.00
16461;BME280;8341;42.048;24.650;2023-05-18T00:09:48;96710.88;;;13.89;100.00
16461;BME280;8341;42.048;24.650;2023-05-18T00:12:14;96705.09;;;13.93;100.00
16461;BME280;8341;42.048;24.650;2023-05-18T00:14:41;96698.38;;;13.94;100.00
16461;BME280;8341;42.048;24.650;2023-05-18T00:17:09;96699.19;;;13.83;100.00
16461;BME280;8341;42.048;24.650;2023-05-18T00:19:36;96694.06;;;13.63;100.00
16461;BME280;8341;42.048;24.650;2023-05-18T00:22:04;96709.06;;;13.45;100.00
16461;BME280;8341;42.048;24.650;2023-05-18T00:24:32;96705.59;;;13.34;100.00
16461;BME280;8341;42.048;24.650;2023-05-18T00:26:59;96705.19;;;13.07;100.00
16461;BME280;8341;42.048;24.650;2023-05-18T00:29:25;96704.94;;;13.11;100.00
16461;BME280;8341;42.048;24.650;2023-05-18T00:31:52;96712.13;;;13.20;100.00
16461;BME280;8341;42.048;24.650;2023-05-18T00:34:20;96708.88;;;13.27;100.00
16461;BME280;8341;42.048;24.650;2023-05-18T00:36:47;96712.38;;;13.27;100.00
16461;BME280;8341;42.048;24.650;2023-05-18T00:39:14;96705.63;;;13.28;100.00
16461;BME280;8341;42.048;24.650;2023-05-18T00:41:41;96693.22;;;13.10;100.00
16461;BME280;8341;42.048;24.650;2023-05-18T00:44:07;96711.63;;;13.27;100.00
16461;BME280;8341;42.048;24.650;2023-05-18T00:46:34;96706.13;;;13.32;100.00
16461;BME280;8341;42.048;24.650;2023-05-18T00:49:01;96697.41;;;13.28;100.00
16461;BME280;8341;42.048;24.650;2023-05-18T00:51:31;96702.19;;;13.16;100.00
16461;BME280;8341;42.048;24.650;2023-05-18T00:53:59;96709.13;;;13.29;100.00
16461;BME280;8341;42.048;24.650;2023-05-18T00:56:28;96718.56;;;13.28;100.00
16461;BME280;8341;42.048;24.650;2023-05-18T00:59:00;96708.13;;;13.32;100.00
16461;BME280;8341;42.048;24.650;2023-05-18T01:01:28;96703.88;;;13.31;100.00
16461;BME280;8341;42.048;24.650;2023-05-18T01:03:56;96706.66;;;13.20;100.00
16461;BME280;8341;42.048;24.650;2023-05-18T01:06:26;96697.69;;;13.25;100.00
16461;BME280;8341;42.048;24.650;2023-05-18T01:08:58;96694.97;;;13.19;100.00
16461;BME280;8341;42.048;24.650;2023-05-18T01:11:48;96689.50;;;13.13;100.00
16461;BME280;8341;42.048;24.650;2023-05-18T01:14:20;96692.22;;;13.19;100.00
16461;BME280;8341;42.048;24.650;2023-05-18T01:17:04;96688.50;;;13.11;100.00
16461;BME280;8341;42.048;24.650;2023-05-18T01:20:11;96689.25;;;13.17;100.00
16461;BME280;8341;42.048;24.650;2023-05-18T01:23:05;96685.75;;;13.22;100.00
16461;BME280;8341;42.048;24.650;2023-05-18T01:25:45;96688.97;;;13.21;100.00
16461;BME280;8341;42.048;24.650;2023-05-18T01:28:17;96682.50;;;13.18;100.00
16461;BME280;8341;42.048;24.650;2023-05-18T01:30:44;96684.50;;;13.17;100.00
16461;BME280;8341;42.048;24.650;2023-05-18T01:33:12;96688.00;;;13.12;100.00
16461;BME280;8341;42.048;24.650;2023-05-18T01:35:39;96676.09;;;12.93;100.00
16461;BME280;8341;42.048;24.650;2023-05-18T01:38:12;96691.50;;;12.96;100.00
16461;BME280;8341;42.048;24.650;2023-05-18T01:40:53;96699.44;;;13.05;100.00
16461;BME280;8341;42.048;24.650;2023-05-18T01:43:28;96700.47;;;12.80;100.00
16461;BME280;8341;42.048;24.650;2023-05-18T01:45:57;96703.72;;;12.73;100.00
16461;BME280;8341;42.048;24.650;2023-05-18T01:48:26;96708.19;;;12.76;100.00
16461;BME280;8341;42.048;24.650;2023-05-18T01:50:55;96704.22;;;12.77;100.00
16461;BME280;8341;42.048;24.650;2023-05-18T01:53:25;96717.66;;;12.86;100.00
16461;BME280;8341;42.048;24.650;2023-05-18T01:55:54;96718.59;;;12.94;100.00
16461;BME280;8341;42.048;24.650;2023-05-18T01:58:23;96724.34;;;12.91;100.00
16461;BME280;8341;42.048;24.650;2023-05-18T02:00:50;96730.31;;;12.89;100.00
16461;BME280;8341;42.048;24.650;2023-05-18T02:03:17;96722.84;;;13.01;100.00
16461;BME280;8341;42.048;24.650;2023-05-18T02:05:44;96726.56;;;13.03;100.00
16461;BME280;8341;42.048;24.650;2023-05-18T02:08:11;96716.16;;;12.85;100.00
16461;BME280;8341;42.048;24.650;2023-05-18T02:10:38;96729.06;;;12.90;100.00
16461;BME280;8341;42.048;24.650;2023-05-18T02:13:04;96728.06;;;13.04;100.00
16461;BME280;8341;42.048;24.650;2023-05-18T02:15:32;96733.31;;;13.08;100.00
16461;BME280;8341;42.048;24.650;2023-05-18T02:17:59;96735.28;;;12.96;100.00
16461;BME280;8341;42.048;24.650;2023-05-18T02:20:27;96738.78;;;13.08;100.00
16461;BME280;8341;42.048;24.650;2023-05-18T02:22:57;96742.50;;;13.10;100.00
16461;BME280;8341;42.048;24.650;2023-05-18T02:25:23;96744.72;;;13.17;100.00
16461;BME280;8341;42.048;24.650;2023-05-18T02:27:50;96737.78;;;13.22;100.00
16461;BME280;8341;42.048;24.650;2023-05-18T02:30:17;96745.22;;;13.22;100.00
16461;BME280;8341;42.048;24.650;2023-05-18T02:32:46;96749.44;;;13.34;100.00
16461;BME280;8341;42.048;24.650;2023-05-18T02:35:14;96755.88;;;13.42;100.00
16461;BME280;8341;42.048;24.650;2023-05-18T02:37:41;96755.38;;;13.43;100.00
16461;BME280;8341;42.048;24.650;2023-05-18T02:40:10;96751.41;;;13.28;100.00
16461;BME280;8341;42.048;24.650;2023-05-18T02:42:37;96752.69;;;13.21;100.00
16461;BME280;8341;42.048;24.650;2023-05-18T02:45:05;96754.66;;;13.32;100.00
16461;BME280;8341;42.048;24.650;2023-05-18T02:47:32;96758.09;;;13.43;100.00
16461;BME280;8341;42.048;24.650;2023-05-18T02:50:00;96751.16;;;13.42;100.00
16461;BME280;8341;42.048;24.650;2023-05-18T02:52:27;96755.13;;;13.41;100.00
16461;BME280;8341;42.048;24.650;2023-05-18T02:54:53;96762.09;;;13.48;100.00
16461;BME280;8341;42.048;24.650;2023-05-18T02:57:20;96758.59;;;13.53;100.00
16461;BME280;8341;42.048;24.650;2023-05-18T02:59:47;96763.03;;;13.56;100.00
16461;BME280;8341;42.048;24.650;2023-05-18T03:02:14;96766.59;;;13.45;100.00
16461;BME280;8341;42.048;24.650;2023-05-18T03:04:41;96768.34;;;13.43;100.00
16461;BME280;8341;42.048;24.650;2023-05-18T03:07:09;96771.31;;;13.39;100.00
16461;BME280;8341;42.048;24.650;2023-05-18T03:09:36;96782.03;;;13.43;100.00
16461;BME280;8341;42.048;24.650;2023-05-18T03:12:03;96790.72;;;13.58;100.00
16461;BME280;8341;42.048;24.650;2023-05-18T03:14:30;96784.69;;;13.65;100.00
16461;BME280;8341;42.048;24.650;2023-05-18T03:16:56;96786.44;;;13.68;100.00
16461;BME280;8341;42.048;24.650;2023-05-18T03:19:23;96792.16;;;13.70;100.00
16461;BME280;8341;42.048;24.650;2023-05-18T03:21:51;96798.41;;;13.65;100.00
16461;BME280;8341;42.048;24.650;2023-05-18T03:24:19;96796.41;;;13.65;100.00
16461;BME280;8341;42.048;24.650;2023-05-18T03:26:46;96807.31;;;13.76;100.00
16461;BME280;8341;42.048;24.650;2023-05-18T03:29:13;96804.56;;;13.88;100.00
16461;BME280;8341;42.048;24.650;2023-05-18T03:31:39;96805.00;;;13.97;100.00
16461;BME280;8341;42.048;24.650;2023-05-18T03:34:06;96803.53;;;13.96;100.00
16461;BME280;8341;42.048;24.650;2023-05-18T03:36:33;96801.28;;;13.95;100.00
16461;BME280;8341;42.048;24.650;2023-05-18T03:39:03;96805.00;;;13.97;100.00
16461;BME280;8341;42.048;24.650;2023-05-18T03:41:31;96805.25;;;13.99;100.00
16461;BME280;8341;42.048;24.650;2023-05-18T03:43:58;96801.00;;;14.04;100.00
16461;BME280;8341;42.048;24.650;2023-05-18T03:46:25;96804.50;;;14.04;100.00
16461;BME280;8341;42.048;24.650;2023-05-18T03:48:52;96812.66;;;14.10;100.00
16461;BME280;8341;42.048;24.650;2023-05-18T03:51:19;96806.19;;;14.13;100.00
16461;BME280;8341;42.048;24.650;2023-05-18T03:53:46;96803.47;;;14.07;100.00
16461;BME280;8341;42.048;24.650;2023-05-18T03:56:13;96808.47;;;14.03;100.00
16461;BME280;8341;42.048;24.650;2023-05-18T03:58:41;96816.69;;;14.09;100.00
16461;BME280;8341;42.048;24.650;2023-05-18T04:01:08;96828.38;;;14.15;100.00
16461;BME280;8341;42.048;24.650;2023-05-18T04:03:35;96824.88;;;14.20;100.00
16461;BME280;8341;42.048;24.650;2023-05-18T04:06:02;96828.31;;;14.20;100.00
16461;BME280;8341;42.048;24.650;2023-05-18T04:08:31;96830.34;;;14.20;100.00
16461;BME280;8341;42.048;24.650;2023-05-18T04:10:58;96831.81;;;14.26;100.00
16461;BME280;8341;42.048;24.650;2023-05-18T04:13:25;96832.81;;;14.23;100.00
16461;BME280;8341;42.048;24.650;2023-05-18T04:15:54;96830.63;;;14.11;100.00
16461;BME280;8341;42.048;24.650;2023-05-18T04:18:22;96846.75;;;14.31;100.00
16461;BME280;8341;42.048;24.650;2023-05-18T04:20:49;96835.50;;;14.40;100.00
16461;BME280;8341;42.048;24.650;2023-05-18T04:23:15;96835.75;;;14.42;100.00
16461;BME280;8341;42.048;24.650;2023-05-18T04:25:42;96833.72;;;14.48;100.00
16461;BME280;8341;42.048;24.650;2023-05-18T04:28:09;96841.19;;;14.48;100.00
16461;BME280;8341;42.048;24.650;2023-05-18T04:30:36;96836.41;;;14.54;100.00
16461;BME280;8341;42.048;24.650;2023-05-18T04:33:04;96840.09;;;14.62;100.00
16461;BME280;8341;42.048;24.650;2023-05-18T04:35:32;96842.34;;;14.69;100.00
16461;BME280;8341;42.048;24.650;2023-05-18T04:37:58;96839.78;;;14.76;100.00
16461;BME280;8341;42.048;24.650;2023-05-18T04:40:25;96845.47;;;14.84;100.00
16461;BME280;8341;42.048;24.650;2023-05-18T04:42:52;96852.91;;;14.89;100.00
16461;BME280;8341;42.048;24.650;2023-05-18T04:45:19;96849.88;;;14.92;100.00
16461;BME280;8341;42.048;24.650;2023-05-18T04:47:48;96851.13;;;14.97;100.00
16461;BME280;8341;42.048;24.650;2023-05-18T04:50:19;96843.91;;;14.94;100.00
16461;BME280;8341;42.048;24.650;2023-05-18T04:52:51;96851.06;;;15.02;100.00
16461;BME280;8341;42.048;24.650;2023-05-18T04:55:21;96855.53;;;15.05;100.00
16461;BME280;8341;42.048;24.650;2023-05-18T04:57:50;96865.72;;;15.11;100.00
16461;BME280;8341;42.048;24.650;2023-05-18T05:00:19;96862.50;;;15.12;100.00
16461;BME280;8341;42.048;24.650;2023-05-18T05:02:45;96863.47;;;15.15;100.00
16461;BME280;8341;42.048;24.650;2023-05-18T05:05:12;96862.72;;;15.14;100.00
16461;BME280;8341;42.048;24.650;2023-05-18T05:07:40;96866.47;;;15.11;100.00
16461;BME280;8341;42.048;24.650;2023-05-18T05:10:08;96859.19;;;14.84;100.00
16461;BME280;8341;42.048;24.650;2023-05-18T05:12:36;96871.00;;;14.68;100.00
16461;BME280;8341;42.048;24.650;2023-05-18T05:15:03;96863.47;;;14.27;100.00
16461;BME280;8341;42.048;24.650;2023-05-18T05:17:30;96863.97;;;14.20;100.00
16461;BME280;8341;42.048;24.650;2023-05-18T05:19:56;96864.84;;;13.93;100.00
16461;BME280;8341;42.048;24.650;2023-05-18T05:22:23;96856.91;;;13.78;100.00
16461;BME280;8341;42.048;24.650;2023-05-18T05:24:51;96858.38;;;13.85;100.00
16461;BME280;8341;42.048;24.650;2023-05-18T05:27:18;96861.34;;;13.93;100.00
16461;BME280;8341;42.048;24.650;2023-05-18T05:29:45;96873.56;;;13.92;100.00
16461;BME280;8341;42.048;24.650;2023-05-18T05:32:12;96869.34;;;13.85;100.00
16461;BME280;8341;42.048;24.650;2023-05-18T05:34:39;96875.06;;;13.93;100.00
16461;BME280;8341;42.048;24.650;2023-05-18T05:37:08;96877.78;;;13.98;100.00
16461;BME280;8341;42.048;24.650;2023-05-18T05:39:34;96872.75;;;14.13;100.00
16461;BME280;8341;42.048;24.650;2023-05-18T05:42:03;96879.94;;;14.27;100.00
16461;BME280;8341;42.048;24.650;2023-05-18T05:44:30;96889.63;;;14.39;100.00
16461;BME280;8341;42.048;24.650;2023-05-18T05:46:56;96886.56;;;14.49;100.00
16461;BME280;8341;42.048;24.650;2023-05-18T05:49:23;96893.03;;;14.57;100.00
16461;BME280;8341;42.048;24.650;2023-05-18T05:51:51;96895.50;;;14.60;100.00
16461;BME280;8341;42.048;24.650;2023-05-18T05:54:17;96893.97;;;14.65;100.00
16461;BME280;8341;42.048;24.650;2023-05-18T05:56:44;96906.44;;;14.71;100.00
16461;BME280;8341;42.048;24.650;2023-05-18T05:59:12;96908.91;;;14.69;100.00
16461;BME280;8341;42.048;24.650;2023-05-18T06:01:39;96912.44;;;14.64;100.00
16461;BME280;8341;42.048;24.650;2023-05-18T06:04:06;96901.97;;;14.68;100.00
16461;BME280;8341;42.048;24.650;2023-05-18T06:06:35;96904.97;;;14.65;100.00
16461;BME280;8341;42.048;24.650;2023-05-18T06:09:02;96908.00;;;14.56;100.00
16461;BME280;8341;42.048;24.650;2023-05-18T06:11:30;96917.19;;;14.64;100.00
16461;BME280;8341;42.048;24.650;2023-05-18T06:13:57;96909.19;;;14.71;100.00
16461;BME280;8341;42.048;24.650;2023-05-18T06:16:25;96913.38;;;14.78;100.00
16461;BME280;8341;42.048;24.650;2023-05-18T06:18:52;96910.94;;;14.69;100.00
16461;BME280;8341;42.048;24.650;2023-05-18T06:21:19;96924.44;;;14.61;100.00
16461;BME280;8341;42.048;24.650;2023-05-18T06:23:46;96921.88;;;14.74;100.00
16461;BME280;8341;42.048;24.650;2023-05-18T06:26:12;96922.19;;;14.65;100.00
16461;BME280;8341;42.048;24.650;2023-05-18T06:28:39;96928.66;;;14.62;100.00
16461;BME280;8341;42.048;24.650;2023-05-18T06:31:06;96938.47;;;14.47;100.00
16461;BME280;8341;42.048;24.650;2023-05-18T06:33:34;96932.75;;;14.39;100.00
16461;BME280;8341;42.048;24.650;2023-05-18T06:36:01;96941.94;;;14.53;100.00
16461;BME280;8341;42.048;24.650;2023-05-18T06:38:28;96947.47;;;14.30;100.00
16461;BME280;8341;42.048;24.650;2023-05-18T06:40:55;96953.47;;;14.23;100.00
16461;BME280;8341;42.048;24.650;2023-05-18T06:43:21;96949.22;;;14.39;100.00
16461;BME280;8341;42.048;24.650;2023-05-18T06:45:49;96959.47;;;14.27;100.00
16461;BME280;8341;42.048;24.650;2023-05-18T06:48:16;96963.44;;;14.37;100.00
16461;BME280;8341;42.048;24.650;2023-05-18T06:50:44;96959.19;;;14.48;100.00
16461;BME280;8341;42.048;24.650;2023-05-18T06:53:11;96954.91;;;14.52;100.00
16461;BME280;8341;42.048;24.650;2023-05-18T06:55:38;96958.34;;;14.64;100.00
16461;BME280;8341;42.048;24.650;2023-05-18T06:58:05;96970.06;;;14.64;100.00
16461;BME280;8341;42.048;24.650;2023-05-18T07:00:32;96977.03;;;14.71;100.00
16461;BME280;8341;42.048;24.650;2023-05-18T07:02:59;96973.28;;;14.74;100.00
16461;BME280;8341;42.048;24.650;2023-05-18T07:05:26;96979.97;;;14.84;100.00
16461;BME280;8341;42.048;24.650;2023-05-18T07:07:56;96987.69;;;14.85;100.00
16461;BME280;8341;42.048;24.650;2023-05-18T07:10:23;96990.69;;;14.82;100.00
16461;BME280;8341;42.048;24.650;2023-05-18T07:12:49;96992.25;;;14.72;100.00
16461;BME280;8341;42.048;24.650;2023-05-18T07:15:16;97006.16;;;14.85;100.00
16461;BME280;8341;42.048;24.650;2023-05-18T07:17:44;97004.44;;;14.82;100.00
16461;BME280;8341;42.048;24.650;2023-05-18T07:20:10;97016.34;;;14.95;100.00
16461;BME280;8341;42.048;24.650;2023-05-18T07:22:37;97018.16;;;14.82;100.00
16461;BME280;8341;42.048;24.650;2023-05-18T07:25:07;97017.84;;;14.96;100.00
16461;BME280;8341;42.048;24.650;2023-05-18T07:27:34;97026.78;;;15.08;100.00
16461;BME280;8341;42.048;24.650;2023-05-18T07:30:01;97028.28;;;15.09;100.00
16461;BME280;8341;42.048;24.650;2023-05-18T07:32:28;97017.53;;;15.11;100.00
16461;BME280;8341;42.048;24.650;2023-05-18T07:34:54;97032.94;;;15.25;100.00
16461;BME280;8341;42.048;24.650;2023-05-18T07:37:21;97022.66;;;15.31;100.00
16461;BME280;8341;42.048;24.650;2023-05-18T07:39:48;97028.13;;;15.37;100.00
16461;BME280;8341;42.048;24.650;2023-05-18T07:42:16;97033.59;;;15.42;100.00
16461;BME280;8341;42.048;24.650;2023-05-18T07:44:43;97035.81;;;15.49;100.00
16461;BME280;8341;42.048;24.650;2023-05-18T07:47:10;97037.28;;;15.56;100.00
16461;BME280;8341;42.048;24.650;2023-05-18T07:49:37;97036.50;;;15.61;100.00
16461;BME280;8341;42.048;24.650;2023-05-18T07:52:05;97032.97;;;15.66;100.00
16461;BME280;8341;42.048;24.650;2023-05-18T07:54:32;97045.25;;;15.59;100.00
16461;BME280;8341;42.048;24.650;2023-05-18T07:56:59;97042.97;;;15.63;100.00
16461;BME280;8341;42.048;24.650;2023-05-18T07:59:27;97044.69;;;15.66;100.00
16461;BME280;8341;42.048;24.650;2023-05-18T08:01:54;97049.91;;;15.70;100.00
16461;BME280;8341;42.048;24.650;2023-05-18T08:04:23;97052.16;;;15.72;100.00
16461;BME280;8341;42.048;24.650;2023-05-18T08:06:50;97046.22;;;15.62;100.00
16461;BME280;8341;42.048;24.650;2023-05-18T08:09:19;97056.16;;;15.71;100.00
16461;BME280;8341;42.048;24.650;2023-05-18T12:10:14;97224.81;;;17.44;81.99
16461;BME280;8341;42.048;24.650;2023-05-18T12:12:42;97220.34;;;17.41;89.36
16461;BME280;8341;42.048;24.650;2023-05-18T12:15:10;97218.84;;;17.40;86.27
16461;BME280;8341;42.048;24.650;2023-05-18T12:17:39;97227.75;;;17.27;81.06
16461;BME280;8341;42.048;24.650;2023-05-18T12:20:07;97232.84;;;17.42;82.04
16461;BME280;8341;42.048;24.650;2023-05-18T12:22:35;97232.09;;;17.41;79.39
16461;BME280;8341;42.048;24.650;2023-05-18T12:25:02;97235.28;;;17.51;81.46
16461;BME280;8341;42.048;24.650;2023-05-18T12:27:30;97246.06;;;17.49;80.47
16461;BME280;8341;42.048;24.650;2023-05-18T12:30:03;97243.19;;;17.36;79.80
16461;BME280;8341;42.048;24.650;2023-05-18T12:32:30;97243.28;;;17.49;81.83
16461;BME280;8341;42.048;24.650;2023-05-18T12:34:57;97241.47;;;17.33;80.37
16461;BME280;8341;42.048;24.650;2023-05-18T12:37:25;97245.75;;;17.28;83.15
16461;BME280;8341;42.048;24.650;2023-05-18T12:39:52;97249.72;;;17.09;81.09
16461;BME280;8341;42.048;24.650;2023-05-18T12:42:19;97233.41;;;17.11;81.16
16461;BME280;8341;42.048;24.650;2023-05-18T12:44:48;97247.22;;;17.35;81.09
16461;BME280;8341;42.048;24.650;2023-05-18T12:47:16;97242.56;;;17.24;82.29
16461;BME280;8341;42.048;24.650;2023-05-18T12:49:47;97242.84;;;17.21;83.48
16461;BME280;8341;42.048;24.650;2023-05-18T12:52:15;97241.84;;;17.18;86.76
16461;BME280;8341;42.048;24.650;2023-05-18T12:54:49;97227.78;;;16.98;89.96
16461;BME280;8341;42.048;24.650;2023-05-18T12:57:20;97239.44;;;16.79;91.04
16461;BME280;8341;42.048;24.650;2023-05-18T12:59:51;97247.66;;;16.55;92.46
16461;BME280;8341;42.048;24.650;2023-05-18T13:02:30;97240.31;;;16.69;93.45
16461;BME280;8341;42.048;24.650;2023-05-18T13:05:05;97245.19;;;16.87;95.69
16461;BME280;8341;42.048;24.650;2023-05-18T13:07:37;97245.91;;;16.87;95.98
16461;BME280;8341;42.048;24.650;2023-05-18T13:10:05;97234.00;;;17.04;98.36
16461;BME280;8341;42.048;24.650;2023-05-18T13:12:40;97245.00;;;17.04;96.29
16461;BME280;8341;42.048;24.650;2023-05-18T13:15:14;97247.47;;;16.42;95.93
16461;BME280;8341;42.048;24.650;2023-05-18T13:18:02;97243.34;;;16.65;97.15
16461;BME280;8341;42.048;24.650;2023-05-18T13:20:32;97253.78;;;16.72;100.00
16461;BME280;8341;42.048;24.650;2023-05-18T13:23:01;97245.69;;;16.50;98.56
16461;BME280;8341;42.048;24.650;2023-05-18T13:25:28;97252.41;;;16.55;100.00
16461;BME280;8341;42.048;24.650;2023-05-18T13:27:55;97252.44;;;16.49;99.35
16461;BME280;8341;42.048;24.650;2023-05-18T13:30:23;97249.72;;;16.84;100.00
16461;BME280;8341;42.048;24.650;2023-05-18T13:32:50;97255.06;;;17.01;100.00
16461;BME280;8341;42.048;24.650;2023-05-18T13:35:17;97262.69;;;17.14;98.84
16461;BME280;8341;42.048;24.650;2023-05-18T13:37:45;97264.25;;;17.09;96.91
16461;BME280;8341;42.048;24.650;2023-05-18T13:40:13;97264.22;;;17.15;95.84
16461;BME280;8341;42.048;24.650;2023-05-18T13:42:40;97268.47;;;17.10;91.17
16461;BME280;8341;42.048;24.650;2023-05-18T13:45:08;97269.16;;;17.22;90.44
16461;BME280;8341;42.048;24.650;2023-05-18T13:47:37;97270.66;;;17.23;93.35
16461;BME280;8341;42.048;24.650;2023-05-18T13:50:05;97266.34;;;16.98;88.98
16461;BME280;8341;42.048;24.650;2023-05-18T13:52:32;97279.41;;;17.21;89.11
16461;BME280;8341;42.048;24.650;2023-05-18T13:54:58;97256.34;;;17.24;91.96
16461;BME280;8341;42.048;24.650;2023-05-18T13:57:25;97266.16;;;17.44;93.58
16461;BME280;8341;42.048;24.650;2023-05-18T13:59:52;97271.09;;;17.27;89.15
16461;BME280;8341;42.048;24.650;2023-05-18T14:02:19;97280.63;;;17.26;87.74
16461;BME280;8341;42.048;24.650;2023-05-18T14:04:47;97272.31;;;17.31;87.22
16461;BME280;8341;42.048;24.650;2023-05-18T14:07:14;97274.91;;;17.48;89.57
16461;BME280;8341;42.048;24.650;2023-05-18T14:09:40;97274.78;;;17.59;91.64
16461;BME280;8341;42.048;24.650;2023-05-18T14:12:08;97283.75;;;17.65;88.18
16461;BME280;8341;42.048;24.650;2023-05-18T14:14:35;97278.19;;;17.71;86.54
16461;BME280;8341;42.048;24.650;2023-05-18T14:17:02;97273.09;;;17.56;84.93
16461;BME280;8341;42.048;24.650;2023-05-18T14:19:29;97283.09;;;17.29;84.54
16461;BME280;8341;42.048;24.650;2023-05-18T14:25:36;97278.75;;;17.39;87.97
16461;BME280;8341;42.048;24.650;2023-05-18T14:28:03;97280.13;;;17.51;92.74
16461;BME280;8341;42.048;24.650;2023-05-18T14:30:30;97273.22;;;17.39;89.61
16461;BME280;8341;42.048;24.650;2023-05-18T14:32:56;97279.59;;;17.59;90.28
16461;BME280;8341;42.048;24.650;2023-05-18T14:35:23;97282.50;;;17.66;89.65
16461;BME280;8341;42.048;24.650;2023-05-18T14:37:50;97284.78;;;17.62;89.85
16461;BME280;8341;42.048;24.650;2023-05-18T14:40:17;97281.41;;;17.50;90.95
16461;BME280;8341;42.048;24.650;2023-05-18T14:42:45;97279.50;;;17.40;90.72
16461;BME280;8341;42.048;24.650;2023-05-18T14:45:11;97285.72;;;17.46;87.70
16461;BME280;8341;42.048;24.650;2023-05-18T14:47:38;97285.09;;;17.29;91.20
16461;BME280;8341;42.048;24.650;2023-05-18T14:50:06;97287.72;;;17.16;90.21
16461;BME280;8341;42.048;24.650;2023-05-18T14:52:32;97281.19;;;17.19;92.64
16461;BME280;8341;42.048;24.650;2023-05-18T14:55:00;97286.22;;;17.20;93.28
16461;BME280;8341;42.048;24.650;2023-05-18T14:57:26;97285.84;;;17.29;93.35
16461;BME280;8341;42.048;24.650;2023-05-18T14:59:54;97288.56;;;17.35;95.47
16461;BME280;8341;42.048;24.650;2023-05-18T15:02:22;97280.75;;;17.15;95.76
16461;BME280;8341;42.048;24.650;2023-05-18T15:04:49;97282.88;;;16.98;99.70
16461;BME280;8341;42.048;24.650;2023-05-18T15:07:16;97276.91;;;16.94;100.00
16461;BME280;8341;42.048;24.650;2023-05-18T15:09:42;97272.91;;;16.95;100.00
16461;BME280;8341;42.048;24.650;2023-05-18T15:12:09;97284.06;;;16.72;100.00
16461;BME280;8341;42.048;24.650;2023-05-18T15:14:36;97277.19;;;16.49;100.00
16461;BME280;8341;42.048;24.650;2023-05-18T15:17:04;97274.69;;;16.51;100.00
16461;BME280;8341;42.048;24.650;2023-05-18T15:19:32;97269.19;;;16.51;100.00
16461;BME280;8341;42.048;24.650;2023-05-18T15:21:59;97270.69;;;16.58;100.00
16461;BME280;8341;42.048;24.650;2023-05-18T15:24:26;97269.63;;;16.66;100.00
16461;BME280;8341;42.048;24.650;2023-05-18T15:26:53;97274.56;;;16.73;100.00
16461;BME280;8341;42.048;24.650;2023-05-18T15:29:19;97279.59;;;16.69;100.00
16461;BME280;8341;42.048;24.650;2023-05-18T15:31:46;97285.81;;;16.75;100.00
16461;BME280;8341;42.048;24.650;2023-05-18T15:34:16;97281.09;;;16.70;100.00
16461;BME280;8341;42.048;24.650;2023-05-18T15:36:43;97274.09;;;16.69;100.00
16461;BME280;8341;42.048;24.650;2023-05-18T15:39:10;97276.31;;;16.76;100.00
16461;BME280;8341;42.048;24.650;2023-05-18T15:41:37;97267.72;;;16.85;100.00
16461;BME280;8341;42.048;24.650;2023-05-18T15:44:04;97273.44;;;16.87;100.00
16461;BME280;8341;42.048;24.650;2023-05-18T15:46:31;97273.44;;;16.87;100.00
16461;BME280;8341;42.048;24.650;2023-05-18T15:49:00;97273.63;;;16.95;100.00
16461;BME280;8341;42.048;24.650;2023-05-18T15:51:28;97278.13;;;16.98;100.00
16461;BME280;8341;42.048;24.650;2023-05-18T15:53:55;97276.81;;;17.05;100.00
16461;BME280;8341;42.048;24.650;2023-05-18T15:56:22;97287.09;;;17.04;100.00
16461;BME280;8341;42.048;24.650;2023-05-18T15:58:49;97283.53;;;17.09;100.00
16461;BME280;8341;42.048;24.650;2023-05-18T16:01:15;97283.31;;;17.07;100.00
16461;BME280;8341;42.048;24.650;2023-05-18T16:03:42;97281.34;;;17.02;100.00
16461;BME280;8341;42.048;24.650;2023-05-18T16:06:09;97278.03;;;17.09;100.00
16461;BME280;8341;42.048;24.650;2023-05-18T16:08:37;97292.03;;;17.11;100.00
16461;BME280;8341;42.048;24.650;2023-05-18T16:11:04;97282.34;;;17.05;100.00
16461;BME280;8341;42.048;24.650;2023-05-18T16:13:31;97281.41;;;16.97;100.00
16461;BME280;8341;42.048;24.650;2023-05-18T16:15:58;97285.19;;;16.94;100.00
16461;BME280;8341;42.048;24.650;2023-05-18T16:18:25;97288.44;;;16.92;100.00
16461;BME280;8341;42.048;24.650;2023-05-18T16:20:52;97289.69;;;16.91;100.00
16461;BME280;8341;42.048;24.650;2023-05-18T16:23:19;97288.00;;;16.82;100.00
16461;BME280;8341;42.048;24.650;2023-05-18T16:25:47;97301.56;;;16.80;100.00
16461;BME280;8341;42.048;24.650;2023-05-18T16:28:13;97300.31;;;16.81;100.00
16461;BME280;8341;42.048;24.650;2023-05-18T16:30:40;97289.03;;;16.79;100.00
16461;BME280;8341;42.048;24.650;2023-05-18T16:33:07;97291.28;;;16.81;100.00
16461;BME280;8341;42.048;24.650;2023-05-18T16:35:34;97299.13;;;16.71;100.00
16461;BME280;8341;42.048;24.650;2023-05-18T16:38:01;97295.13;;;16.67;100.00
16461;BME280;8341;42.048;24.650;2023-05-18T16:40:27;97302.19;;;16.62;100.00
16461;BME280;8341;42.048;24.650;2023-05-18T16:42:56;97296.69;;;16.51;100.00
16461;BME280;8341;42.048;24.650;2023-05-18T16:45:22;97299.22;;;16.49;100.00
16461;BME280;8341;42.048;24.650;2023-05-18T16:47:49;97297.00;;;16.48;100.00
16461;BME280;8341;42.048;24.650;2023-05-18T16:50:16;97301.78;;;16.42;100.00
16461;BME280;8341;42.048;24.650;2023-05-18T16:52:43;97299.03;;;16.36;100.00
16461;BME280;8341;42.048;24.650;2023-05-18T16:55:09;97307.69;;;16.10;100.00
16461;BME280;8341;42.048;24.650;2023-05-18T16:57:36;97304.47;;;16.01;100.00